sensor_id;sensor_type;location;lat;lon;timestamp;temperature;humidity
48328;DHT22;34136;51.022;7.082;2023-07-20T00:01:10;19.00;99.90
48328;DHT22;34136;51.022;7.082;2023-07-20T00:03:56;19.00;99.90
48328;DHT22;34136;51.022;7.082;2023-07-20T00:06:43;19.20;99.90
48328;DHT22;34136;51.022;7.082;2023-07-20T00:09:29;19.20;99.90
48328;DHT22;34136;51.022;7.082;2023-07-20T00:12:15;19.10;99.90
48328;DHT22;34136;51.022;7.082;2023-07-20T00:15:01;19.10;99.90
48328;DHT22;34136;51.022;7.082;2023-07-20T00:17:47;19.10;99.90
48328;DHT22;34136;51.022;7.082;2023-07-20T00:20:33;19.20;99.90
48328;DHT22;34136;51.022;7.082;2023-07-20T00:23:20;19.10;99.90
48328;DHT22;34136;51.022;7.082;2023-07-20T00:26:06;19.00;99.90
48328;DHT22;34136;51.022;7.082;2023-07-20T00:28:52;19.10;99.90
48328;DHT22;34136;51.022;7.082;2023-07-20T00:31:39;19.00;99.90
48328;DHT22;34136;51.022;7.082;2023-07-20T00:34:25;19.00;99.90
48328;DHT22;34136;51.022;7.082;2023-07-20T00:37:13;19.00;99.90
48328;DHT22;34136;51.022;7.082;2023-07-20T00:39:59;19.00;99.90
48328;DHT22;34136;51.022;7.082;2023-07-20T00:42:45;18.80;99.90
48328;DHT22;34136;51.022;7.082;2023-07-20T00:45:32;18.70;99.90
48328;DHT22;34136;51.022;7.082;2023-07-20T00:48:19;18.60;99.90
48328;DHT22;34136;51.022;7.082;2023-07-20T00:54:00;18.60;99.90
48328;DHT22;34136;51.022;7.082;2023-07-20T00:56:46;18.60;99.90
48328;DHT22;34136;51.022;7.082;2023-07-20T00:59:36;18.50;99.90
48328;DHT22;34136;51.022;7.082;2023-07-20T01:02:22;18.50;99.90
48328;DHT22;34136;51.022;7.082;2023-07-20T01:05:09;18.60;99.90
48328;DHT22;34136;51.022;7.082;2023-07-20T01:07:59;18.70;99.90
48328;DHT22;34136;51.022;7.082;2023-07-20T01:10:54;18.80;99.90
48328;DHT22;34136;51.022;7.082;2023-07-20T01:13:43;18.90;99.90
48328;DHT22;34136;51.022;7.082;2023-07-20T01:16:30;18.90;99.90
48328;DHT22;34136;51.022;7.082;2023-07-20T01:19:16;18.90;99.90
48328;DHT22;34136;51.022;7.082;2023-07-20T01:34:10;18.90;99.90
48328;DHT22;34136;51.022;7.082;2023-07-20T01:36:59;19.00;99.90
48328;DHT22;34136;51.022;7.082;2023-07-20T01:39:47;19.00;99.90
48328;DHT22;34136;51.022;7.082;2023-07-20T01:42:33;19.00;99.90
48328;DHT22;34136;51.022;7.082;2023-07-20T01:45:20;19.00;99.90
48328;DHT22;34136;51.022;7.082;2023-07-20T01:48:06;18.90;99.90
48328;DHT22;34136;51.022;7.082;2023-07-20T01:50:52;18.90;99.90
48328;DHT22;34136;51.022;7.082;2023-07-20T01:53:39;18.80;99.90
48328;DHT22;34136;51.022;7.082;2023-07-20T01:56:25;18.60;99.90
48328;DHT22;34136;51.022;7.082;2023-07-20T01:59:11;18.50;99.90
48328;DHT22;34136;51.022;7.082;2023-07-20T02:01:58;18.60;99.90
48328;DHT22;34136;51.022;7.082;2023-07-20T02:04:44;18.40;99.90
48328;DHT22;34136;51.022;7.082;2023-07-20T02:07:30;18.30;99.90
48328;DHT22;34136;51.022;7.082;2023-07-20T02:10:17;18.30;99.90
48328;DHT22;34136;51.022;7.082;2023-07-20T02:13:03;18.40;99.90
48328;DHT22;34136;51.022;7.082;2023-07-20T02:15:50;18.40;99.90
48328;DHT22;34136;51.022;7.082;2023-07-20T02:18:36;18.50;99.90
48328;DHT22;34136;51.022;7.082;2023-07-20T02:21:22;18.30;99.90
48328;DHT22;34136;51.022;7.082;2023-07-20T02:24:08;18.30;99.90
48328;DHT22;34136;51.022;7.082;2023-07-20T02:26:55;18.30;99.90
48328;DHT22;34136;51.022;7.082;2023-07-20T02:29:42;18.20;99.90
48328;DHT22;34136;51.022;7.082;2023-07-20T02:32:31;18.10;99.90
48328;DHT22;34136;51.022;7.082;2023-07-20T02:35:18;18.20;99.90
48328;DHT22;34136;51.022;7.082;2023-07-20T02:38:04;18.20;99.90
48328;DHT22;34136;51.022;7.082;2023-07-20T02:40:50;18.20;99.90
48328;DHT22;34136;51.022;7.082;2023-07-20T02:43:37;18.10;99.90
48328;DHT22;34136;51.022;7.082;2023-07-20T02:46:23;18.00;99.90
48328;DHT22;34136;51.022;7.082;2023-07-20T02:49:09;17.90;1.00
48328;DHT22;34136;51.022;7.082;2023-07-20T02:51:55;17.90;1.00
48328;DHT22;34136;51.022;7.082;2023-07-20T02:54:41;18.10;1.40
48328;DHT22;34136;51.022;7.082;2023-07-20T02:57:28;18.10;1.40
48328;DHT22;34136;51.022;7.082;2023-07-20T03:00:14;18.00;99.90
48328;DHT22;34136;51.022;7.082;2023-07-20T03:03:01;18.00;1.40
48328;DHT22;34136;51.022;7.082;2023-07-20T03:05:47;18.00;1.40
48328;DHT22;34136;51.022;7.082;2023-07-20T03:08:34;18.00;1.40
48328;DHT22;34136;51.022;7.082;2023-07-20T03:11:21;18.00;1.40
48328;DHT22;34136;51.022;7.082;2023-07-20T03:14:07;18.10;99.90
48328;DHT22;34136;51.022;7.082;2023-07-20T03:16:53;18.00;99.90
48328;DHT22;34136;51.022;7.082;2023-07-20T03:19:40;18.00;99.90
48328;DHT22;34136;51.022;7.082;2023-07-20T03:22:26;17.90;1.40
48328;DHT22;34136;51.022;7.082;2023-07-20T03:25:13;17.80;1.00
48328;DHT22;34136;51.022;7.082;2023-07-20T03:28:00;17.80;1.00
48328;DHT22;34136;51.022;7.082;2023-07-20T03:30:46;17.80;1.00
48328;DHT22;34136;51.022;7.082;2023-07-20T03:33:33;17.70;1.00
48328;DHT22;34136;51.022;7.082;2023-07-20T03:36:20;17.80;1.00
48328;DHT22;34136;51.022;7.082;2023-07-20T03:39:06;17.90;1.00
48328;DHT22;34136;51.022;7.082;2023-07-20T03:41:52;17.80;1.40
48328;DHT22;34136;51.022;7.082;2023-07-20T03:44:39;17.70;1.00
48328;DHT22;34136;51.022;7.082;2023-07-20T03:47:27;17.70;1.00
48328;DHT22;34136;51.022;7.082;2023-07-20T03:50:14;17.70;1.00
48328;DHT22;34136;51.022;7.082;2023-07-20T03:53:00;17.70;1.00
48328;DHT22;34136;51.022;7.082;2023-07-20T03:55:51;17.60;1.00
48328;DHT22;34136;51.022;7.082;2023-07-20T03:58:38;17.60;1.00
48328;DHT22;34136;51.022;7.082;2023-07-20T04:01:24;17.60;1.00
48328;DHT22;34136;51.022;7.082;2023-07-20T04:04:10;17.60;1.00
48328;DHT22;34136;51.022;7.082;2023-07-20T04:06:57;17.50;1.00
48328;DHT22;34136;51.022;7.082;2023-07-20T04:09:43;17.60;1.00
48328;DHT22;34136;51.022;7.082;2023-07-20T04:12:29;17.50;1.00
48328;DHT22;34136;51.022;7.082;2023-07-20T04:15:15;17.50;1.00
48328;DHT22;34136;51.022;7.082;2023-07-20T04:18:02;17.60;1.00
48328;DHT22;34136;51.022;7.082;2023-07-20T04:20:48;17.60;1.00
48328;DHT22;34136;51.022;7.082;2023-07-20T04:23:35;17.60;1.00
48328;DHT22;34136;51.022;7.082;2023-07-20T04:26:22;17.50;1.00
48328;DHT22;34136;51.022;7.082;2023-07-20T04:29:09;17.50;1.00
48328;DHT22;34136;51.022;7.082;2023-07-20T04:31:59;17.60;1.00
48328;DHT22;34136;51.022;7.082;2023-07-20T04:34:45;17.60;1.00
48328;DHT22;34136;51.022;7.082;2023-07-20T04:37:31;17.60;1.40
48328;DHT22;34136;51.022;7.082;2023-07-20T04:40:19;17.70;99.90
48328;DHT22;34136;51.022;7.082;2023-07-20T04:43:05;17.70;99.90
48328;DHT22;34136;51.022;7.082;2023-07-20T04:45:51;17.70;99.90
48328;DHT22;34136;51.022;7.082;2023-07-20T04:48:39;17.70;1.40
48328;DHT22;34136;51.022;7.082;2023-07-20T04:51:25;17.70;99.90
48328;DHT22;34136;51.022;7.082;2023-07-20T04:54:14;17.70;99.90
48328;DHT22;34136;51.022;7.082;2023-07-20T04:57:01;17.80;99.90
48328;DHT22;34136;51.022;7.082;2023-07-20T04:59:48;17.70;99.90
48328;DHT22;34136;51.022;7.082;2023-07-20T05:02:34;17.80;99.90
48328;DHT22;34136;51.022;7.082;2023-07-20T05:05:20;17.80;99.90
48328;DHT22;34136;51.022;7.082;2023-07-20T05:08:07;17.80;99.90
48328;DHT22;34136;51.022;7.082;2023-07-20T05:10:53;17.80;99.90
48328;DHT22;34136;51.022;7.082;2023-07-20T05:13:40;17.80;99.90
48328;DHT22;34136;51.022;7.082;2023-07-20T05:16:26;17.80;99.90
48328;DHT22;34136;51.022;7.082;2023-07-20T05:19:15;17.80;99.90
48328;DHT22;34136;51.022;7.082;2023-07-20T05:22:01;17.80;99.90
48328;DHT22;34136;51.022;7.082;2023-07-20T05:24:48;17.60;99.90
48328;DHT22;34136;51.022;7.082;2023-07-20T05:27:38;17.60;1.00
48328;DHT22;34136;51.022;7.082;2023-07-20T05:30:25;17.60;1.40
48328;DHT22;34136;51.022;7.082;2023-07-20T05:33:11;17.80;1.40
48328;DHT22;34136;51.022;7.082;2023-07-20T05:35:58;17.70;1.40
48328;DHT22;34136;51.022;7.082;2023-07-20T05:38:44;17.80;99.90
48328;DHT22;34136;51.022;7.082;2023-07-20T05:41:30;17.90;99.90
48328;DHT22;34136;51.022;7.082;2023-07-20T05:44:16;17.90;99.90
48328;DHT22;34136;51.022;7.082;2023-07-20T05:47:03;17.90;99.90
48328;DHT22;34136;51.022;7.082;2023-07-20T05:49:50;17.90;99.90
48328;DHT22;34136;51.022;7.082;2023-07-20T05:52:36;17.90;99.90
48328;DHT22;34136;51.022;7.082;2023-07-20T05:55:23;17.90;99.90
48328;DHT22;34136;51.022;7.082;2023-07-20T05:58:09;17.90;99.90
48328;DHT22;34136;51.022;7.082;2023-07-20T06:00:55;17.90;99.90
48328;DHT22;34136;51.022;7.082;2023-07-20T06:03:41;18.10;99.90
48328;DHT22;34136;51.022;7.082;2023-07-20T06:06:27;18.20;99.90
48328;DHT22;34136;51.022;7.082;2023-07-20T06:09:13;18.20;99.90
48328;DHT22;34136;51.022;7.082;2023-07-20T06:11:59;18.20;99.90
48328;DHT22;34136;51.022;7.082;2023-07-20T06:14:46;18.20;99.90
48328;DHT22;34136;51.022;7.082;2023-07-20T06:17:32;18.20;99.90
48328;DHT22;34136;51.022;7.082;2023-07-20T06:20:18;18.10;99.90
48328;DHT22;34136;51.022;7.082;2023-07-20T06:23:04;18.20;99.90
48328;DHT22;34136;51.022;7.082;2023-07-20T06:25:50;18.10;99.90
48328;DHT22;34136;51.022;7.082;2023-07-20T06:28:37;18.20;99.90
48328;DHT22;34136;51.022;7.082;2023-07-20T06:31:23;18.30;99.90
48328;DHT22;34136;51.022;7.082;2023-07-20T06:34:09;18.40;99.90
48328;DHT22;34136;51.022;7.082;2023-07-20T06:36:56;18.60;99.90
48328;DHT22;34136;51.022;7.082;2023-07-20T06:39:42;18.60;99.90
48328;DHT22;34136;51.022;7.082;2023-07-20T06:42:28;18.60;99.90
48328;DHT22;34136;51.022;7.082;2023-07-20T06:45:14;18.60;99.90
48328;DHT22;34136;51.022;7.082;2023-07-20T06:48:01;18.60;99.90
48328;DHT22;34136;51.022;7.082;2023-07-20T06:50:47;18.70;99.90
48328;DHT22;34136;51.022;7.082;2023-07-20T06:53:33;18.70;99.90
48328;DHT22;34136;51.022;7.082;2023-07-20T06:59:01;18.90;99.90
48328;DHT22;34136;51.022;7.082;2023-07-20T07:01:47;18.70;99.90
48328;DHT22;34136;51.022;7.082;2023-07-20T07:04:33;18.70;99.90
48328;DHT22;34136;51.022;7.082;2023-07-20T07:07:19;18.90;99.90
48328;DHT22;34136;51.022;7.082;2023-07-20T07:10:05;19.00;99.90
48328;DHT22;34136;51.022;7.082;2023-07-20T07:12:52;19.00;99.90
48328;DHT22;34136;51.022;7.082;2023-07-20T07:15:38;19.20;99.90
48328;DHT22;34136;51.022;7.082;2023-07-20T07:18:24;19.30;99.90
48328;DHT22;34136;51.022;7.082;2023-07-20T07:21:10;19.40;99.90
48328;DHT22;34136;51.022;7.082;2023-07-20T07:23:57;19.50;99.90
48328;DHT22;34136;51.022;7.082;2023-07-20T07:26:46;19.80;99.90
48328;DHT22;34136;51.022;7.082;2023-07-20T07:29:32;19.90;99.90
48328;DHT22;34136;51.022;7.082;2023-07-20T07:32:18;19.90;99.90
48328;DHT22;34136;51.022;7.082;2023-07-20T07:35:05;20.00;99.90
48328;DHT22;34136;51.022;7.082;2023-07-20T07:37:51;20.10;99.90
48328;DHT22;34136;51.022;7.082;2023-07-20T07:40:37;20.10;99.90
48328;DHT22;34136;51.022;7.082;2023-07-20T07:43:23;20.30;99.90
48328;DHT22;34136;51.022;7.082;2023-07-20T07:46:10;20.40;99.90
48328;DHT22;34136;51.022;7.082;2023-07-20T07:48:56;20.30;99.90
48328;DHT22;34136;51.022;7.082;2023-07-20T07:51:42;20.50;99.90
48328;DHT22;34136;51.022;7.082;2023-07-20T07:54:29;20.60;99.90
48328;DHT22;34136;51.022;7.082;2023-07-20T07:57:16;20.30;99.90
48328;DHT22;34136;51.022;7.082;2023-07-20T08:00:02;20.20;99.90
48328;DHT22;34136;51.022;7.082;2023-07-20T08:02:51;20.60;99.90
48328;DHT22;34136;51.022;7.082;2023-07-20T08:05:37;20.90;99.90
48328;DHT22;34136;51.022;7.082;2023-07-20T08:08:23;21.00;99.90
48328;DHT22;34136;51.022;7.082;2023-07-20T08:11:09;21.30;99.90
48328;DHT22;34136;51.022;7.082;2023-07-20T08:13:56;21.20;99.90
48328;DHT22;34136;51.022;7.082;2023-07-20T08:16:42;21.50;99.90
48328;DHT22;34136;51.022;7.082;2023-07-20T08:19:30;21.70;99.90
48328;DHT22;34136;51.022;7.082;2023-07-20T08:22:17;21.50;99.90
48328;DHT22;34136;51.022;7.082;2023-07-20T08:25:03;21.20;99.90
48328;DHT22;34136;51.022;7.082;2023-07-20T08:27:50;21.10;99.90
48328;DHT22;34136;51.022;7.082;2023-07-20T08:30:41;21.10;99.90
48328;DHT22;34136;51.022;7.082;2023-07-20T08:33:27;21.20;99.90
48328;DHT22;34136;51.022;7.082;2023-07-20T08:36:14;21.20;99.90
48328;DHT22;34136;51.022;7.082;2023-07-20T08:39:00;21.40;99.90
48328;DHT22;34136;51.022;7.082;2023-07-20T08:41:49;21.50;99.90
48328;DHT22;34136;51.022;7.082;2023-07-20T08:44:39;21.90;99.90
48328;DHT22;34136;51.022;7.082;2023-07-20T08:47:27;22.10;99.90
48328;DHT22;34136;51.022;7.082;2023-07-20T08:50:16;22.10;99.90
48328;DHT22;34136;51.022;7.082;2023-07-20T08:53:02;22.30;99.90
48328;DHT22;34136;51.022;7.082;2023-07-20T08:55:51;22.70;99.90
48328;DHT22;34136;51.022;7.082;2023-07-20T08:58:39;22.90;99.90
48328;DHT22;34136;51.022;7.082;2023-07-20T09:01:27;22.80;99.90
48328;DHT22;34136;51.022;7.082;2023-07-20T09:04:14;22.80;99.90
48328;DHT22;34136;51.022;7.082;2023-07-20T09:07:01;22.70;99.90
48328;DHT22;34136;51.022;7.082;2023-07-20T09:09:47;22.90;99.90
48328;DHT22;34136;51.022;7.082;2023-07-20T09:12:38;23.20;99.90
48328;DHT22;34136;51.022;7.082;2023-07-20T09:15:25;23.20;99.90
48328;DHT22;34136;51.022;7.082;2023-07-20T09:18:11;22.70;99.90
48328;DHT22;34136;51.022;7.082;2023-07-20T09:21:04;22.50;99.90
48328;DHT22;34136;51.022;7.082;2023-07-20T09:23:56;22.60;99.90
48328;DHT22;34136;51.022;7.082;2023-07-20T09:26:45;22.80;99.90
48328;DHT22;34136;51.022;7.082;2023-07-20T09:29:32;23.00;99.90
48328;DHT22;34136;51.022;7.082;2023-07-20T09:32:21;22.90;99.90
48328;DHT22;34136;51.022;7.082;2023-07-20T09:35:16;23.00;99.90
48328;DHT22;34136;51.022;7.082;2023-07-20T09:38:04;23.00;99.90
48328;DHT22;34136;51.022;7.082;2023-07-20T09:40:50;23.40;99.90
48328;DHT22;34136;51.022;7.082;2023-07-20T09:43:36;23.60;99.90
48328;DHT22;34136;51.022;7.082;2023-07-20T09:46:23;23.70;99.90
48328;DHT22;34136;51.022;7.082;2023-07-20T09:49:09;24.00;99.90
48328;DHT22;34136;51.022;7.082;2023-07-20T09:51:57;24.00;99.90
48328;DHT22;34136;51.022;7.082;2023-07-20T09:54:45;23.80;99.90
48328;DHT22;34136;51.022;7.082;2023-07-20T09:57:33;23.90;99.90
48328;DHT22;34136;51.022;7.082;2023-07-20T10:00:19;23.80;99.90
48328;DHT22;34136;51.022;7.082;2023-07-20T10:03:06;23.80;99.90
48328;DHT22;34136;51.022;7.082;2023-07-20T10:05:58;24.00;99.90
48328;DHT22;34136;51.022;7.082;2023-07-20T10:08:48;24.50;99.90
48328;DHT22;34136;51.022;7.082;2023-07-20T10:11:41;24.90;99.90
48328;DHT22;34136;51.022;7.082;2023-07-20T10:14:30;25.00;99.90
48328;DHT22;34136;51.022;7.082;2023-07-20T10:17:17;25.10;99.90
48328;DHT22;34136;51.022;7.082;2023-07-20T10:20:04;25.20;99.90
48328;DHT22;34136;51.022;7.082;2023-07-20T10:22:54;25.00;99.90
48328;DHT22;34136;51.022;7.082;2023-07-20T10:25:45;24.60;99.90
48328;DHT22;34136;51.022;7.082;2023-07-20T10:28:32;24.70;99.90
48328;DHT22;34136;51.022;7.082;2023-07-20T10:31:20;24.90;99.90
48328;DHT22;34136;51.022;7.082;2023-07-20T10:34:07;25.30;99.90
48328;DHT22;34136;51.022;7.082;2023-07-20T10:36:53;25.40;99.90
48328;DHT22;34136;51.022;7.082;2023-07-20T10:39:51;25.40;99.90
48328;DHT22;34136;51.022;7.082;2023-07-20T10:42:42;25.10;99.90
48328;DHT22;34136;51.022;7.082;2023-07-20T10:46:02;24.80;99.90
48328;DHT22;34136;51.022;7.082;2023-07-20T10:48:59;24.80;99.90
48328;DHT22;34136;51.022;7.082;2023-07-20T10:51:55;24.10;99.90
48328;DHT22;34136;51.022;7.082;2023-07-20T10:54:48;23.90;99.90
48328;DHT22;34136;51.022;7.082;2023-07-20T10:57:35;24.10;99.90
48328;DHT22;34136;51.022;7.082;2023-07-20T11:00:21;24.40;99.90
48328;DHT22;34136;51.022;7.082;2023-07-20T11:03:09;24.40;99.90
48328;DHT22;34136;51.022;7.082;2023-07-20T11:05:57;24.40;99.90
48328;DHT22;34136;51.022;7.082;2023-07-20T11:08:44;24.60;99.90
48328;DHT22;34136;51.022;7.082;2023-07-20T11:11:31;24.50;99.90
48328;DHT22;34136;51.022;7.082;2023-07-20T11:14:25;24.70;99.90
48328;DHT22;34136;51.022;7.082;2023-07-20T11:17:15;25.10;99.90
48328;DHT22;34136;51.022;7.082;2023-07-20T11:20:02;25.60;99.90
48328;DHT22;34136;51.022;7.082;2023-07-20T11:22:48;25.50;99.90
48328;DHT22;34136;51.022;7.082;2023-07-20T11:25:39;25.80;99.90
48328;DHT22;34136;51.022;7.082;2023-07-20T11:28:25;25.60;99.90
48328;DHT22;34136;51.022;7.082;2023-07-20T11:31:13;25.60;99.90
48328;DHT22;34136;51.022;7.082;2023-07-20T11:34:00;25.50;99.90
48328;DHT22;34136;51.022;7.082;2023-07-20T11:36:48;25.70;99.90
48328;DHT22;34136;51.022;7.082;2023-07-20T11:39:34;26.10;99.90
48328;DHT22;34136;51.022;7.082;2023-07-20T11:42:20;25.90;99.90
48328;DHT22;34136;51.022;7.082;2023-07-20T11:45:07;25.50;99.90
48328;DHT22;34136;51.022;7.082;2023-07-20T11:47:53;25.30;99.90
48328;DHT22;34136;51.022;7.082;2023-07-20T11:50:40;25.20;99.90
48328;DHT22;34136;51.022;7.082;2023-07-20T11:53:26;25.40;99.90
48328;DHT22;34136;51.022;7.082;2023-07-20T11:56:13;25.30;99.90
48328;DHT22;34136;51.022;7.082;2023-07-20T11:59:00;25.30;99.90
48328;DHT22;34136;51.022;7.082;2023-07-20T12:01:47;25.70;99.90
48328;DHT22;34136;51.022;7.082;2023-07-20T12:04:33;25.50;99.90
48328;DHT22;34136;51.022;7.082;2023-07-20T12:07:20;25.30;99.90
48328;DHT22;34136;51.022;7.082;2023-07-20T12:10:22;25.00;99.90
48328;DHT22;34136;51.022;7.082;2023-07-20T12:13:11;25.00;99.90
48328;DHT22;34136;51.022;7.082;2023-07-20T12:15:56;24.80;99.90
48328;DHT22;34136;51.022;7.082;2023-07-20T12:19:10;24.70;99.90
48328;DHT22;34136;51.022;7.082;2023-07-20T12:21:59;24.80;99.90
48328;DHT22;34136;51.022;7.082;2023-07-20T12:24:45;24.90;99.90
48328;DHT22;34136;51.022;7.082;2023-07-20T12:27:31;24.80;99.90
48328;DHT22;34136;51.022;7.082;2023-07-20T12:30:28;24.80;99.90
48328;DHT22;34136;51.022;7.082;2023-07-20T12:33:15;24.90;99.90
48328;DHT22;34136;51.022;7.082;2023-07-20T12:36:06;24.80;99.90
48328;DHT22;34136;51.022;7.082;2023-07-20T12:38:52;24.70;99.90
48328;DHT22;34136;51.022;7.082;2023-07-20T12:41:38;24.80;99.90
48328;DHT22;34136;51.022;7.082;2023-07-20T12:44:35;24.60;99.90
48328;DHT22;34136;51.022;7.082;2023-07-20T12:47:44;24.70;99.90
48328;DHT22;34136;51.022;7.082;2023-07-20T12:51:16;24.70;99.90
48328;DHT22;34136;51.022;7.082;2023-07-20T12:54:02;24.90;99.90
48328;DHT22;34136;51.022;7.082;2023-07-20T12:56:48;24.90;99.90
48328;DHT22;34136;51.022;7.082;2023-07-20T12:59:34;24.40;99.90
48328;DHT22;34136;51.022;7.082;2023-07-20T13:02:20;24.50;99.90
48328;DHT22;34136;51.022;7.082;2023-07-20T13:05:06;24.70;99.90
48328;DHT22;34136;51.022;7.082;2023-07-20T13:07:52;24.90;99.90
48328;DHT22;34136;51.022;7.082;2023-07-20T13:10:39;25.20;99.90
48328;DHT22;34136;51.022;7.082;2023-07-20T13:13:25;25.20;99.90
48328;DHT22;34136;51.022;7.082;2023-07-20T13:16:11;25.50;99.90
48328;DHT22;34136;51.022;7.082;2023-07-20T13:18:58;25.50;99.90
48328;DHT22;34136;51.022;7.082;2023-07-20T13:21:44;25.40;99.90
48328;DHT22;34136;51.022;7.082;2023-07-20T13:24:30;25.70;99.90
48328;DHT22;34136;51.022;7.082;2023-07-20T13:27:17;25.80;99.90
48328;DHT22;34136;51.022;7.082;2023-07-20T13:30:03;25.60;99.90
48328;DHT22;34136;51.022;7.082;2023-07-20T13:32:49;25.60;99.90
48328;DHT22;34136;51.022;7.082;2023-07-20T13:35:36;25.10;99.90
48328;DHT22;34136;51.022;7.082;2023-07-20T13:38:22;25.00;99.90
48328;DHT22;34136;51.022;7.082;2023-07-20T13:41:07;25.20;99.90
48328;DHT22;34136;51.022;7.082;2023-07-20T13:43:54;25.20;99.90
48328;DHT22;34136;51.022;7.082;2023-07-20T13:46:49;25.20;99.90
48328;DHT22;34136;51.022;7.082;2023-07-20T13:49:44;25.30;99.90
48328;DHT22;34136;51.022;7.082;2023-07-20T13:52:30;25.00;99.90
48328;DHT22;34136;51.022;7.082;2023-07-20T13:55:16;24.90;99.90
48328;DHT22;34136;51.022;7.082;2023-07-20T13:58:02;24.90;99.90
48328;DHT22;34136;51.022;7.082;2023-07-20T14:00:48;25.00;99.90
48328;DHT22;34136;51.022;7.082;2023-07-20T14:03:34;25.20;99.90
48328;DHT22;34136;51.022;7.082;2023-07-20T14:06:21;25.20;99.90
48328;DHT22;34136;51.022;7.082;2023-07-20T14:09:07;25.30;99.90
48328;DHT22;34136;51.022;7.082;2023-07-20T14:11:53;25.20;99.90
48328;DHT22;34136;51.022;7.082;2023-07-20T14:14:40;25.30;99.90
48328;DHT22;34136;51.022;7.082;2023-07-20T14:17:26;25.00;99.90
48328;DHT22;34136;51.022;7.082;2023-07-20T14:20:12;25.30;99.90
48328;DHT22;34136;51.022;7.082;2023-07-20T14:22:58;25.30;99.90
48328;DHT22;34136;51.022;7.082;2023-07-20T14:25:45;25.50;99.90
48328;DHT22;34136;51.022;7.082;2023-07-20T14:28:31;25.70;99.90
48328;DHT22;34136;51.022;7.082;2023-07-20T14:31:18;25.90;99.90
48328;DHT22;34136;51.022;7.082;2023-07-20T14:34:04;25.80;99.90
48328;DHT22;34136;51.022;7.082;2023-07-20T14:36:53;25.70;99.90
48328;DHT22;34136;51.022;7.082;2023-07-20T14:39:40;25.80;99.90
48328;DHT22;34136;51.022;7.082;2023-07-20T14:42:26;25.90;99.90
48328;DHT22;34136;51.022;7.082;2023-07-20T14:45:18;25.60;99.90
48328;DHT22;34136;51.022;7.082;2023-07-20T14:48:09;25.60;99.90
48328;DHT22;34136;51.022;7.082;2023-07-20T14:50:56;25.80;99.90
48328;DHT22;34136;51.022;7.082;2023-07-20T14:53:42;25.90;99.90
48328;DHT22;34136;51.022;7.082;2023-07-20T14:56:28;25.60;99.90
48328;DHT22;34136;51.022;7.082;2023-07-20T14:59:14;25.60;99.90
48328;DHT22;34136;51.022;7.082;2023-07-20T15:02:01;25.60;99.90
48328;DHT22;34136;51.022;7.082;2023-07-20T15:04:50;25.90;99.90
48328;DHT22;34136;51.022;7.082;2023-07-20T15:07:37;25.90;99.90
48328;DHT22;34136;51.022;7.082;2023-07-20T15:10:24;25.40;99.90
48328;DHT22;34136;51.022;7.082;2023-07-20T15:13:10;25.30;99.90
48328;DHT22;34136;51.022;7.082;2023-07-20T15:15:57;25.30;99.90
48328;DHT22;34136;51.022;7.082;2023-07-20T15:18:45;25.50;99.90
48328;DHT22;34136;51.022;7.082;2023-07-20T15:21:37;25.50;99.90
48328;DHT22;34136;51.022;7.082;2023-07-20T15:24:24;25.60;99.90
48328;DHT22;34136;51.022;7.082;2023-07-20T15:27:12;25.30;99.90
48328;DHT22;34136;51.022;7.082;2023-07-20T15:29:59;25.10;99.90
48328;DHT22;34136;51.022;7.082;2023-07-20T15:32:47;25.40;99.90
48328;DHT22;34136;51.022;7.082;2023-07-20T15:35:34;25.60;99.90
48328;DHT22;34136;51.022;7.082;2023-07-20T15:38:22;25.70;99.90
48328;DHT22;34136;51.022;7.082;2023-07-20T15:41:08;25.70;99.90
48328;DHT22;34136;51.022;7.082;2023-07-20T15:43:55;25.70;99.90
48328;DHT22;34136;51.022;7.082;2023-07-20T15:49:30;25.50;99.90
48328;DHT22;34136;51.022;7.082;2023-07-20T15:52:17;25.70;99.90
48328;DHT22;34136;51.022;7.082;2023-07-20T15:55:05;25.70;99.90
48328;DHT22;34136;51.022;7.082;2023-07-20T15:57:53;25.70;99.90
48328;DHT22;34136;51.022;7.082;2023-07-20T16:00:53;25.60;99.90
48328;DHT22;34136;51.022;7.082;2023-07-20T16:03:40;25.60;99.90
48328;DHT22;34136;51.022;7.082;2023-07-20T16:06:26;25.70;99.90
48328;DHT22;34136;51.022;7.082;2023-07-20T16:09:12;25.80;99.90
48328;DHT22;34136;51.022;7.082;2023-07-20T16:11:59;25.70;99.90
48328;DHT22;34136;51.022;7.082;2023-07-20T16:14:46;25.70;99.90
48328;DHT22;34136;51.022;7.082;2023-07-20T16:17:32;25.60;99.90
48328;DHT22;34136;51.022;7.082;2023-07-20T16:20:18;25.50;99.90
48328;DHT22;34136;51.022;7.082;2023-07-20T16:23:05;25.50;99.90
48328;DHT22;34136;51.022;7.082;2023-07-20T16:25:51;25.80;99.90
48328;DHT22;34136;51.022;7.082;2023-07-20T16:28:37;25.70;99.90
48328;DHT22;34136;51.022;7.082;2023-07-20T16:31:24;25.80;99.90
48328;DHT22;34136;51.022;7.082;2023-07-20T16:34:10;25.80;99.90
48328;DHT22;34136;51.022;7.082;2023-07-20T16:37:06;25.80;99.90
48328;DHT22;34136;51.022;7.082;2023-07-20T16:39:53;25.60;99.90
48328;DHT22;34136;51.022;7.082;2023-07-20T16:42:46;25.50;99.90
48328;DHT22;34136;51.022;7.082;2023-07-20T16:45:32;25.30;99.90
48328;DHT22;34136;51.022;7.082;2023-07-20T16:48:23;25.40;99.90
48328;DHT22;34136;51.022;7.082;2023-07-20T16:51:15;25.60;99.90
48328;DHT22;34136;51.022;7.082;2023-07-20T16:54:03;25.70;99.90
48328;DHT22;34136;51.022;7.082;2023-07-20T16:56:49;25.70;99.90
48328;DHT22;34136;51.022;7.082;2023-07-20T16:59:42;25.60;99.90
48328;DHT22;34136;51.022;7.082;2023-07-20T17:02:28;25.40;99.90
48328;DHT22;34136;51.022;7.082;2023-07-20T17:05:17;25.50;99.90
48328;DHT22;34136;51.022;7.082;2023-07-20T17:08:08;25.60;99.90
48328;DHT22;34136;51.022;7.082;2023-07-20T17:11:07;25.30;99.90
48328;DHT22;34136;51.022;7.082;2023-07-20T17:13:58;25.40;99.90
48328;DHT22;34136;51.022;7.082;2023-07-20T17:17:10;25.20;99.90
48328;DHT22;34136;51.022;7.082;2023-07-20T17:20:04;25.00;99.90
48328;DHT22;34136;51.022;7.082;2023-07-20T17:22:56;25.00;99.90
48328;DHT22;34136;51.022;7.082;2023-07-20T17:25:46;24.90;99.90
48328;DHT22;34136;51.022;7.082;2023-07-20T17:28:39;24.80;99.90
48328;DHT22;34136;51.022;7.082;2023-07-20T17:31:28;24.80;99.90
48328;DHT22;34136;51.022;7.082;2023-07-20T17:34:15;24.90;99.90
48328;DHT22;34136;51.022;7.082;2023-07-20T17:37:03;24.70;99.90
48328;DHT22;34136;51.022;7.082;2023-07-20T17:40:13;24.80;99.90
48328;DHT22;34136;51.022;7.082;2023-07-20T17:43:21;24.80;99.90
48328;DHT22;34136;51.022;7.082;2023-07-20T17:46:08;24.90;99.90
48328;DHT22;34136;51.022;7.082;2023-07-20T17:49:01;24.80;99.90
48328;DHT22;34136;51.022;7.082;2023-07-20T17:51:55;24.90;99.90
48328;DHT22;34136;51.022;7.082;2023-07-20T17:54:43;24.70;99.90
48328;DHT22;34136;51.022;7.082;2023-07-20T17:57:36;24.70;99.90
48328;DHT22;34136;51.022;7.082;2023-07-20T18:00:50;24.60;99.90
48328;DHT22;34136;51.022;7.082;2023-07-20T18:03:39;24.70;99.90